Skidmore, Texas
Current Conditions -  °F | °C
As of 10:15 AM on Friday 19 Dec 2014 (Local Time) from KBEA Reporting Station
Drizzle Drizzle  
Wind Chill: 53°   Ceiling: 900
Heat Index: 53°   Visibility: 10mi
Dew Point: 53°   Wind: 16mph
Humidity: 99%   Direction: 20°NNE
Pressure: 30.08"   Gusts: 23mph
Location:  28.25°N, 97.69°W
Report Text: KBEA 191615Z AUTO 02014G20KT 10SM -DZ OVC009 12/12 A3008 RMK AO2 T01170116
Loading
Personal Weather Stations






























Interactive Weather Map New forecast layout! Learn more

10-Day Weather Forecast

Advertisements
Track Severe Weather on mobile